Time;durP1;ratioP1;P1;durP2;ratioP2;P2;SDS_P1;SDS_P2;PMS_P1;PMS_P2;Temp;Humidity;BMP_temperature;BMP_pressure;BME280_temperature;BME280_humidity;BME280_pressure;Samples;Min_cycle;Max_cycle;Signal;HPM_P1;HPM_P2
2023/08/10 00:01:19;;;;;;;2.75;2.53;;;19.30;78.60;;;;;;4936906;28;20039;-63
2023/08/10 00:03:44;;;;;;;3.30;2.47;;;19.30;78.60;;;;;;4937860;28;20126;-63
2023/08/10 00:06:11;;;;;;;3.65;2.42;;;19.30;78.60;;;;;;4934552;28;20043;-64
2023/08/10 00:08:37;;;;;;;2.92;2.60;;;19.30;78.80;;;;;;4936663;28;20171;-63
2023/08/10 00:11:04;;;;;;;3.35;2.75;;;19.30;78.80;;;;;;4936802;28;20050;-63
2023/08/10 00:13:29;;;;;;;3.83;2.90;;;19.30;78.90;;;;;;4937123;28;20121;-63
2023/08/10 00:15:55;;;;;;;2.70;2.50;;;19.30;78.90;;;;;;4936353;28;20062;-63
2023/08/10 00:18:21;;;;;;;3.30;3.00;;;19.30;78.80;;;;;;4936269;28;20484;-63
2023/08/10 00:20:47;;;;;;;2.85;2.60;;;19.30;79.10;;;;;;4936966;28;20133;-63
2023/08/10 00:23:12;;;;;;;2.70;2.50;;;19.30;79.30;;;;;;4937175;28;20040;-63
2023/08/10 00:25:38;;;;;;;2.90;2.60;;;19.20;79.10;;;;;;4939352;28;20635;-63
2023/08/10 00:28:04;;;;;;;2.72;2.42;;;19.20;79.40;;;;;;4939489;28;20036;-63
2023/08/10 00:30:30;;;;;;;2.97;2.33;;;19.10;79.60;;;;;;4937473;28;20053;-63
2023/08/10 00:32:55;;;;;;;2.50;2.30;;;19.00;79.60;;;;;;4938740;28;20411;-63
2023/08/10 00:35:22;;;;;;;2.50;2.30;;;19.00;79.80;;;;;;4939236;28;20384;-63
2023/08/10 00:37:49;;;;;;;2.88;2.42;;;18.90;80.00;;;;;;4937978;29;20055;-62
2023/08/10 00:40:15;;;;;;;2.90;2.40;;;18.90;80.00;;;;;;4938709;28;20444;-63
2023/08/10 00:42:41;;;;;;;2.55;2.35;;;18.90;80.00;;;;;;4937355;28;20040;-63
2023/08/10 00:45:07;;;;;;;2.65;2.45;;;18.90;80.00;;;;;;4938349;28;20538;-63
2023/08/10 00:47:33;;;;;;;2.15;2.05;;;18.90;80.10;;;;;;4937052;28;20067;-63
2023/08/10 00:49:59;;;;;;;2.35;2.00;;;18.80;80.00;;;;;;4938211;28;20534;-63
2023/08/10 00:52:25;;;;;;;2.50;2.30;;;18.90;80.10;;;;;;4938833;28;20415;-63
2023/08/10 00:54:51;;;;;;;2.28;2.03;;;18.80;80.00;;;;;;4938891;28;20047;-63
2023/08/10 00:57:17;;;;;;;2.67;2.47;;;18.80;79.80;;;;;;4938907;28;20488;-63
2023/08/10 00:59:43;;;;;;;2.10;1.90;;;18.70;79.90;;;;;;4939586;28;20052;-63
2023/08/10 01:02:11;;;;;;;2.20;2.05;;;18.60;80.00;;;;;;4945485;28;20042;-63
2023/08/10 01:04:36;;;;;;;2.30;2.10;;;18.60;80.20;;;;;;4937952;28;20031;-63
2023/08/10 01:07:17;;;;;;;2.30;2.10;;;18.50;80.20;;;;;;4936067;28;20036;-62
2023/08/10 01:09:42;;;;;;;2.53;1.90;;;18.50;81.10;;;;;;4934906;28;20098;-63
2023/08/10 01:12:20;;;;;;;2.70;2.50;;;18.50;80.50;;;;;;4938161;28;20027;-64
2023/08/10 01:14:55;;;;;;;2.30;2.20;;;18.50;81.00;;;;;;4936622;28;20072;-63
2023/08/10 01:17:28;;;;;;;3.55;2.40;;;18.50;80.60;;;;;;4937366;28;20063;-63
2023/08/10 01:19:56;;;;;;;2.50;2.30;;;18.50;80.60;;;;;;4936496;28;20594;-63
2023/08/10 01:22:25;;;;;;;2.97;2.17;;;18.50;80.60;;;;;;4939445;28;20514;-63
2023/08/10 01:25:06;;;;;;;3.53;2.33;;;18.50;80.40;;;;;;4940634;28;20073;-63
2023/08/10 01:27:36;;;;;;;2.53;2.33;;;18.50;81.00;;;;;;4939053;28;20503;-63
2023/08/10 01:30:03;;;;;;;2.30;2.10;;;18.50;80.40;;;;;;4941079;28;20079;-63
2023/08/10 01:32:30;;;;;;;3.17;2.45;;;18.50;80.50;;;;;;4940361;28;20054;-63
2023/08/10 01:34:57;;;;;;;2.47;2.28;;;18.50;80.30;;;;;;4939601;28;20401;-63
2023/08/10 01:37:23;;;;;;;2.50;2.33;;;18.50;80.30;;;;;;4940546;28;20094;-63
2023/08/10 01:39:48;;;;;;;2.50;2.00;;;18.50;81.00;;;;;;4940868;28;20066;-63
2023/08/10 01:42:14;;;;;;;2.20;2.00;;;18.50;79.90;;;;;;4942474;28;20495;-63
2023/08/10 01:44:40;;;;;;;5.38;2.45;;;18.50;79.80;;;;;;4939697;28;20043;-63
2023/08/10 01:47:14;;;;;;;2.67;2.15;;;18.50;79.70;;;;;;4941317;28;20154;-63
2023/08/10 01:49:42;;;;;;;2.63;2.40;;;18.40;79.40;;;;;;4939844;28;20402;-63
2023/08/10 01:52:10;;;;;;;2.15;2.05;;;18.40;79.30;;;;;;4942066;28;20114;-63
2023/08/10 01:54:36;;;;;;;2.47;2.28;;;18.40;79.20;;;;;;4938826;28;20055;-63
2023/08/10 01:57:02;;;;;;;2.35;2.00;;;18.30;79.10;;;;;;4938421;28;20054;-63
2023/08/10 01:59:29;;;;;;;3.08;2.55;;;18.20;79.10;;;;;;4939780;28;20047;-64
2023/08/10 02:01:55;;;;;;;2.92;2.47;;;18.20;79.10;;;;;;4940231;28;20070;-64
2023/08/10 02:04:21;;;;;;;2.28;2.17;;;18.10;79.30;;;;;;4940946;28;20039;-61
2023/08/10 02:06:46;;;;;;;2.92;2.65;;;18.00;79.40;;;;;;4937812;28;20044;-63
2023/08/10 02:09:12;;;;;;;2.55;2.30;;;17.90;79.60;;;;;;4937743;28;20093;-63
2023/08/10 02:11:39;;;;;;;2.60;2.35;;;17.80;79.80;;;;;;4938412;28;20094;-63
2023/08/10 02:14:04;;;;;;;2.65;2.45;;;17.80;80.10;;;;;;4938750;28;20032;-63
2023/08/10 02:16:30;;;;;;;2.63;2.42;;;17.70;80.30;;;;;;4938768;28;20423;-63
2023/08/10 02:18:55;;;;;;;2.97;2.55;;;17.70;80.70;;;;;;4938856;28;20039;-62
2023/08/10 02:21:23;;;;;;;2.35;2.25;;;17.60;81.00;;;;;;4939258;28;20039;-61
2023/08/10 02:23:50;;;;;;;2.80;2.60;;;17.60;81.20;;;;;;4938921;28;20043;-63
2023/08/10 02:26:16;;;;;;;2.75;2.35;;;17.60;81.30;;;;;;4939320;28;20092;-63
2023/08/10 02:28:42;;;;;;;2.67;2.47;;;17.60;81.50;;;;;;4937019;28;20629;-63
2023/08/10 02:31:07;;;;;;;3.10;2.80;;;17.50;81.40;;;;;;4939902;28;20035;-62
2023/08/10 02:33:33;;;;;;;3.00;2.60;;;17.70;81.70;;;;;;4940064;28;20113;-63
2023/08/10 02:35:59;;;;;;;2.80;2.53;;;17.70;81.70;;;;;;4939843;29;20039;-63
2023/08/10 02:38:24;;;;;;;2.38;2.28;;;17.70;81.70;;;;;;4939368;28;20436;-63
2023/08/10 02:40:50;;;;;;;3.75;2.67;;;17.70;81.70;;;;;;4938034;28;20054;-63
2023/08/10 02:43:15;;;;;;;3.08;1.95;;;17.70;81.80;;;;;;4941051;28;20046;-63
2023/08/10 02:45:41;;;;;;;2.00;1.80;;;17.70;81.80;;;;;;4937871;28;20040;-64
2023/08/10 02:48:07;;;;;;;2.30;2.10;;;17.70;81.70;;;;;;4939495;28;20043;-63
2023/08/10 02:50:32;;;;;;;1.65;1.55;;;17.70;81.60;;;;;;4938738;28;20047;-63
2023/08/10 02:52:58;;;;;;;2.47;1.75;;;17.70;81.40;;;;;;4938417;28;20043;-62
2023/08/10 02:55:24;;;;;;;1.42;1.33;;;17.80;81.30;;;;;;4938510;28;20040;-63
2023/08/10 02:57:50;;;;;;;1.52;1.42;;;17.70;81.00;;;;;;4940768;28;20039;-63
2023/08/10 03:00:15;;;;;;;1.85;1.67;;;17.80;80.80;;;;;;4937806;28;20035;-63
2023/08/10 03:02:41;;;;;;;4.75;1.35;;;17.80;80.70;;;;;;4938019;28;20078;-63
2023/08/10 03:05:07;;;;;;;2.15;1.85;;;17.80;80.40;;;;;;4937936;28;20212;-63
2023/08/10 03:07:33;;;;;;;1.45;1.35;;;17.70;79.80;;;;;;4939352;28;20039;-63
2023/08/10 03:09:58;;;;;;;2.58;1.40;;;17.70;79.60;;;;;;4936476;28;20055;-63
2023/08/10 03:12:24;;;;;;;1.73;1.63;;;17.70;79.70;;;;;;4936957;28;20042;-63
2023/08/10 03:14:50;;;;;;;1.65;1.55;;;17.70;79.80;;;;;;4938501;28;20490;-62
2023/08/10 03:17:15;;;;;;;2.22;1.88;;;17.60;79.60;;;;;;4938238;28;20591;-62
2023/08/10 03:19:44;;;;;;;1.70;1.60;;;17.60;79.40;;;;;;4938055;28;20039;-63
2023/08/10 03:22:10;;;;;;;1.63;1.50;;;17.50;79.40;;;;;;4937475;28;20512;-63
2023/08/10 03:24:37;;;;;;;1.92;1.20;;;17.50;79.30;;;;;;4937845;28;20047;-63
2023/08/10 03:27:02;;;;;;;1.55;1.45;;;17.40;79.40;;;;;;4938582;28;20046;-63
2023/08/10 03:29:28;;;;;;;1.45;1.30;;;17.30;79.30;;;;;;4936979;28;20102;-64
2023/08/10 03:31:54;;;;;;;1.60;1.50;;;17.30;79.30;;;;;;4934972;28;20028;-63
2023/08/10 03:34:20;;;;;;;1.50;1.40;;;17.20;79.30;;;;;;4926900;29;20031;-63
2023/08/10 03:36:45;;;;;;;1.95;1.50;;;17.20;79.20;;;;;;4937650;28;20042;-63
2023/08/10 03:39:11;;;;;;;1.52;1.40;;;17.10;79.30;;;;;;4938306;28;20110;-63
2023/08/10 03:41:37;;;;;;;1.60;1.50;;;17.10;79.40;;;;;;4936973;28;20707;-63
2023/08/10 03:44:02;;;;;;;2.38;1.60;;;17.00;79.30;;;;;;4937555;28;20223;-62
2023/08/10 03:46:28;;;;;;;2.40;1.55;;;16.90;79.30;;;;;;4937965;28;20047;-63
2023/08/10 03:48:54;;;;;;;1.48;1.38;;;16.90;79.10;;;;;;4937463;28;20074;-63
2023/08/10 03:51:20;;;;;;;1.80;1.60;;;16.80;79.10;;;;;;4937233;28;20507;-63
2023/08/10 03:53:45;;;;;;;1.70;1.60;;;16.70;79.20;;;;;;4938237;28;20345;-64
2023/08/10 03:56:11;;;;;;;1.70;1.60;;;16.60;79.30;;;;;;4939345;28;20058;-63
2023/08/10 03:58:37;;;;;;;3.55;1.60;;;16.60;79.50;;;;;;4937023;28;20142;-63
2023/08/10 04:01:03;;;;;;;1.80;1.63;;;16.60;79.60;;;;;;4939713;28;20039;-63
2023/08/10 04:03:29;;;;;;;2.13;1.77;;;16.50;79.80;;;;;;4938177;28;20259;-63
2023/08/10 04:05:55;;;;;;;1.45;1.35;;;16.40;79.70;;;;;;4938511;28;20043;-63
2023/08/10 04:08:21;;;;;;;1.73;1.63;;;16.40;79.60;;;;;;4935464;28;20138;-63
2023/08/10 04:10:46;;;;;;;1.70;1.60;;;16.40;79.70;;;;;;4939555;28;20046;-64
2023/08/10 04:13:12;;;;;;;2.58;2.03;;;16.30;79.60;;;;;;4937308;28;20039;-63
2023/08/10 04:15:37;;;;;;;2.35;2.15;;;16.30;80.60;;;;;;4937057;28;20041;-62
2023/08/10 04:18:03;;;;;;;2.60;2.40;;;16.20;79.80;;;;;;4937160;28;20040;-63
2023/08/10 04:20:30;;;;;;;2.45;2.13;;;16.20;80.30;;;;;;4937048;28;20058;-63
2023/08/10 04:22:57;;;;;;;2.30;2.08;;;16.10;80.60;;;;;;4934419;28;20882;-62
2023/08/10 04:25:23;;;;;;;2.15;2.05;;;16.00;81.00;;;;;;4937310;28;20039;-62
2023/08/10 04:27:48;;;;;;;1.95;1.85;;;15.90;81.10;;;;;;4934580;28;20389;-62
2023/08/10 04:30:14;;;;;;;2.45;2.00;;;15.80;81.30;;;;;;4937327;28;20466;-63
2023/08/10 04:32:40;;;;;;;2.47;2.28;;;15.80;81.60;;;;;;4936943;28;20035;-63
2023/08/10 04:35:06;;;;;;;3.88;2.17;;;15.70;81.60;;;;;;4939279;28;20067;-63
2023/08/10 04:37:31;;;;;;;2.83;2.30;;;15.70;81.80;;;;;;4939520;28;20039;-63
2023/08/10 04:39:57;;;;;;;2.50;2.30;;;15.70;81.90;;;;;;4938443;28;20027;-63
2023/08/10 04:42:23;;;;;;;2.85;2.17;;;15.60;82.00;;;;;;4938823;28;20031;-63
2023/08/10 04:44:48;;;;;;;2.58;1.90;;;15.60;82.30;;;;;;4936132;28;20036;-62
2023/08/10 04:47:14;;;;;;;2.35;2.15;;;15.60;82.40;;;;;;4937283;28;20031;-63
2023/08/10 04:49:40;;;;;;;2.63;2.30;;;15.60;82.60;;;;;;4936410;28;20052;-63
2023/08/10 04:52:05;;;;;;;2.25;2.05;;;15.50;82.70;;;;;;4938547;28;20043;-63
2023/08/10 04:54:31;;;;;;;2.30;2.10;;;15.50;83.00;;;;;;4935778;28;20047;-63
2023/08/10 04:56:57;;;;;;;3.00;2.22;;;15.50;83.10;;;;;;4939516;28;20172;-64
2023/08/10 04:59:22;;;;;;;2.53;2.30;;;15.50;83.30;;;;;;4943269;28;20046;-62
2023/08/10 05:01:48;;;;;;;2.45;2.25;;;15.50;83.40;;;;;;4940423;28;20039;-63
2023/08/10 05:04:14;;;;;;;2.20;2.00;;;15.50;83.50;;;;;;4941187;28;20399;-63
2023/08/10 05:06:40;;;;;;;2.17;1.98;;;15.60;83.70;;;;;;4939800;28;20039;-63
2023/08/10 05:09:06;;;;;;;4.95;2.47;;;15.50;83.80;;;;;;4939674;28;20036;-63
2023/08/10 05:11:32;;;;;;;2.40;2.20;;;15.50;84.00;;;;;;4941100;28;20044;-62
2023/08/10 05:13:58;;;;;;;2.78;2.40;;;15.50;84.10;;;;;;4941969;28;20042;-63
2023/08/10 05:16:23;;;;;;;2.88;2.67;;;15.50;84.30;;;;;;4939438;28;20040;-63
2023/08/10 05:18:50;;;;;;;2.97;2.78;;;15.50;84.50;;;;;;4941938;28;20032;-63
2023/08/10 05:21:17;;;;;;;2.78;2.58;;;15.50;84.50;;;;;;4940461;28;20039;-63
2023/08/10 05:23:43;;;;;;;2.95;2.47;;;15.60;84.80;;;;;;4941701;28;20155;-63
2023/08/10 05:26:10;;;;;;;3.03;2.47;;;15.60;84.80;;;;;;4940251;28;20705;-62
2023/08/10 05:28:36;;;;;;;2.78;2.55;;;15.70;85.90;;;;;;4941292;28;20067;-63
2023/08/10 05:31:01;;;;;;;3.33;2.40;;;15.70;85.20;;;;;;4939768;28;20142;-61
2023/08/10 05:33:27;;;;;;;3.03;2.78;;;15.70;85.30;;;;;;4943539;28;20130;-63
2023/08/10 05:35:52;;;;;;;5.55;2.70;;;15.70;85.60;;;;;;4942553;29;20050;-63
2023/08/10 05:38:18;;;;;;;3.17;2.55;;;15.80;85.70;;;;;;4942487;28;20036;-63
2023/08/10 05:40:44;;;;;;;2.85;2.65;;;15.80;85.70;;;;;;4942598;28;20044;-63
2023/08/10 05:43:09;;;;;;;2.80;2.60;;;15.90;85.70;;;;;;4942684;29;20145;-65
2023/08/10 05:45:35;;;;;;;2.78;2.58;;;15.90;85.70;;;;;;4940598;28;20040;-65
2023/08/10 05:48:00;;;;;;;3.88;2.63;;;16.00;85.70;;;;;;4941096;28;20341;-63
2023/08/10 05:50:26;;;;;;;3.05;2.75;;;16.00;85.60;;;;;;4941392;28;20050;-62
2023/08/10 05:52:51;;;;;;;2.67;2.47;;;16.10;85.60;;;;;;4940322;28;20078;-62
2023/08/10 05:55:17;;;;;;;2.40;2.28;;;16.20;85.60;;;;;;4941330;28;20495;-62
2023/08/10 05:57:43;;;;;;;3.33;2.50;;;16.30;85.70;;;;;;4940760;28;20044;-65
2023/08/10 06:00:12;;;;;;;2.75;2.50;;;16.30;85.70;;;;;;4939905;28;20102;-62
2023/08/10 06:02:38;;;;;;;2.78;2.42;;;16.40;85.50;;;;;;4938572;28;20062;-63
2023/08/10 06:05:06;;;;;;;3.08;2.78;;;16.50;85.30;;;;;;4942296;28;20031;-62
2023/08/10 06:07:34;;;;;;;2.72;2.53;;;16.60;85.40;;;;;;4938881;28;20345;-62
2023/08/10 06:10:00;;;;;;;2.60;2.40;;;16.70;85.30;;;;;;4940762;28;20043;-62
2023/08/10 06:12:26;;;;;;;4.25;2.70;;;16.70;85.20;;;;;;4943104;28;20024;-63
2023/08/10 06:14:51;;;;;;;3.30;2.90;;;16.80;85.20;;;;;;4941960;28;20039;-62
2023/08/10 06:17:17;;;;;;;4.28;3.30;;;16.90;85.00;;;;;;4941504;28;20095;-63
2023/08/10 06:19:51;;;;;;;3.85;3.25;;;16.90;85.00;;;;;;4941735;28;20036;-62
2023/08/10 06:22:17;;;;;;;3.05;2.83;;;17.00;85.40;;;;;;4942080;28;20077;-62
2023/08/10 06:24:43;;;;;;;3.33;3.03;;;17.10;85.00;;;;;;4932546;28;20756;-61
2023/08/10 06:27:09;;;;;;;3.65;3.28;;;17.20;85.00;;;;;;4927765;28;20050;-63
2023/08/10 06:29:35;;;;;;;3.70;3.28;;;17.30;85.00;;;;;;4924067;28;20035;-63
2023/08/10 06:32:05;;;;;;;3.90;3.25;;;17.30;84.90;;;;;;4934305;28;20044;-63
2023/08/10 06:34:30;;;;;;;4.75;3.33;;;17.40;85.30;;;;;;4940185;28;20435;-63
2023/08/10 06:36:56;;;;;;;3.75;3.00;;;17.50;85.20;;;;;;4941193;28;20127;-63
2023/08/10 06:39:21;;;;;;;3.28;3.00;;;17.60;84.90;;;;;;4937245;28;20039;-62
2023/08/10 06:41:47;;;;;;;3.40;3.10;;;17.60;84.60;;;;;;4938934;28;20452;-63
2023/08/10 06:44:13;;;;;;;3.20;2.90;;;17.70;84.60;;;;;;4938526;28;20522;-62
2023/08/10 06:46:38;;;;;;;3.20;2.90;;;17.70;84.30;;;;;;4936860;28;20032;-62
2023/08/10 06:49:04;;;;;;;3.53;2.95;;;17.80;83.90;;;;;;4939873;28;20039;-62
2023/08/10 06:51:30;;;;;;;3.15;2.95;;;17.90;83.60;;;;;;4940878;28;20046;-62
2023/08/10 06:53:55;;;;;;;3.28;2.97;;;17.90;83.20;;;;;;4935936;28;20051;-63
2023/08/10 06:56:21;;;;;;;2.92;2.72;;;17.90;82.80;;;;;;4940469;28;20039;-63
2023/08/10 06:58:47;;;;;;;3.75;3.00;;;17.90;82.70;;;;;;4939867;28;20043;-63
2023/08/10 07:01:13;;;;;;;3.10;2.85;;;17.90;82.70;;;;;;4936788;28;20035;-63
2023/08/10 07:03:38;;;;;;;3.13;2.92;;;18.00;82.90;;;;;;4938012;28;20046;-61
2023/08/10 07:06:04;;;;;;;3.42;3.00;;;18.10;82.60;;;;;;4934603;28;20118;-63
2023/08/10 07:08:30;;;;;;;3.47;3.17;;;18.10;82.60;;;;;;4930522;28;20051;-62
2023/08/10 07:10:56;;;;;;;3.05;2.78;;;18.20;82.40;;;;;;4936426;28;20372;-62
2023/08/10 07:13:21;;;;;;;3.70;3.40;;;18.20;82.20;;;;;;4921097;29;20388;-63
2023/08/10 07:15:47;;;;;;;3.60;3.30;;;18.30;82.20;;;;;;4935508;28;20068;-63
2023/08/10 07:18:14;;;;;;;3.05;2.78;;;18.30;81.70;;;;;;4939750;28;20035;-64
2023/08/10 07:20:40;;;;;;;3.17;2.97;;;18.40;82.00;;;;;;4935669;28;20339;-61
2023/08/10 07:23:06;;;;;;;3.17;2.83;;;18.50;82.20;;;;;;4932704;28;20133;-63
2023/08/10 07:25:31;;;;;;;3.20;2.90;;;18.60;82.00;;;;;;4938685;28;20051;-61
2023/08/10 07:27:57;;;;;;;3.30;3.00;;;18.70;81.90;;;;;;4937340;28;20106;-62
2023/08/10 07:30:23;;;;;;;3.13;2.85;;;18.80;81.70;;;;;;4939109;28;20054;-63
2023/08/10 07:32:48;;;;;;;2.90;2.60;;;18.80;81.50;;;;;;4938042;28;20042;-62
2023/08/10 07:35:14;;;;;;;2.78;2.55;;;19.00;81.30;;;;;;4941318;28;20402;-62
2023/08/10 07:37:40;;;;;;;3.25;2.95;;;19.10;81.00;;;;;;4946486;28;20035;-62
2023/08/10 07:40:09;;;;;;;4.50;2.92;;;19.10;80.80;;;;;;4943634;28;20046;-62
2023/08/10 07:42:35;;;;;;;2.92;2.72;;;19.20;80.30;;;;;;4937229;28;20050;-62
2023/08/10 07:45:00;;;;;;;4.07;2.60;;;19.30;80.00;;;;;;4939890;28;20040;-62
2023/08/10 07:47:26;;;;;;;3.33;3.03;;;19.40;80.20;;;;;;4936633;28;20471;-62
2023/08/10 07:49:51;;;;;;;5.55;2.90;;;19.40;79.70;;;;;;4936232;28;20050;-62
2023/08/10 07:52:17;;;;;;;3.28;3.05;;;19.50;79.20;;;;;;4938400;28;20063;-63
2023/08/10 07:54:44;;;;;;;3.80;2.83;;;19.60;78.70;;;;;;4939083;28;20122;-62
2023/08/10 07:57:09;;;;;;;3.00;2.60;;;19.60;78.70;;;;;;4935051;28;20054;-62
2023/08/10 07:59:35;;;;;;;3.05;2.85;;;19.70;78.90;;;;;;4938758;28;20043;-62
2023/08/10 08:02:00;;;;;;;2.95;2.70;;;19.70;78.60;;;;;;4935236;28;20035;-63
2023/08/10 08:04:26;;;;;;;2.90;2.60;;;19.80;78.40;;;;;;4938129;28;20540;-63
2023/08/10 08:06:52;;;;;;;2.88;2.65;;;19.90;78.30;;;;;;4934181;28;20039;-62
2023/08/10 08:09:17;;;;;;;2.60;2.40;;;20.00;78.50;;;;;;4938190;28;20448;-62
2023/08/10 08:11:43;;;;;;;3.15;2.88;;;20.10;78.40;;;;;;4932766;28;20032;-63
2023/08/10 08:14:08;;;;;;;2.97;2.63;;;20.20;78.30;;;;;;4936822;28;20040;-63
2023/08/10 08:16:34;;;;;;;2.63;2.42;;;20.20;78.00;;;;;;4940154;28;20439;-63
2023/08/10 08:19:00;;;;;;;2.47;2.28;;;20.30;77.70;;;;;;4938575;28;20448;-63
2023/08/10 08:21:29;;;;;;;2.83;2.55;;;20.40;77.30;;;;;;4939245;28;20035;-63
2023/08/10 08:23:55;;;;;;;3.40;3.05;;;20.60;76.80;;;;;;4935718;28;20059;-62
2023/08/10 08:26:26;;;;;;;2.90;2.70;;;20.60;76.60;;;;;;4938172;28;20515;-62
2023/08/10 08:28:52;;;;;;;3.92;2.95;;;20.70;76.30;;;;;;4940841;28;20118;-63
2023/08/10 08:31:18;;;;;;;2.60;2.40;;;20.80;76.50;;;;;;4938959;28;20039;-62
2023/08/10 08:33:43;;;;;;;3.15;2.67;;;20.80;76.60;;;;;;4939283;28;20035;-61
2023/08/10 08:36:09;;;;;;;3.58;2.58;;;20.90;76.30;;;;;;4940289;28;20122;-62
2023/08/10 08:38:37;;;;;;;2.40;2.22;;;21.00;76.40;;;;;;4938275;28;20046;-61
2023/08/10 08:41:05;;;;;;;3.70;2.70;;;21.10;76.10;;;;;;4939520;28;20040;-63
2023/08/10 08:43:32;;;;;;;3.75;3.30;;;21.20;75.10;;;;;;4940869;28;20118;-62
2023/08/10 08:45:58;;;;;;;3.03;2.78;;;21.30;74.60;;;;;;4938727;28;20046;-63
2023/08/10 08:48:29;;;;;;;2.78;2.20;;;21.30;74.80;;;;;;4940351;28;20073;-62
2023/08/10 08:50:56;;;;;;;2.72;2.53;;;21.30;74.00;;;;;;4939361;28;20032;-62
2023/08/10 08:53:22;;;;;;;5.50;2.40;;;21.40;74.80;;;;;;4939483;29;20448;-63
2023/08/10 08:55:48;;;;;;;3.00;2.80;;;21.40;74.70;;;;;;4940187;28;20045;-62
2023/08/10 08:58:15;;;;;;;3.83;2.80;;;21.50;73.90;;;;;;4939001;28;20039;-62
2023/08/10 09:00:52;;;;;;;2.45;2.35;;;21.50;73.70;;;;;;4936361;28;20048;-62
2023/08/10 09:03:18;;;;;;;3.75;3.20;;;21.60;74.00;;;;;;4939240;28;20040;-63
2023/08/10 09:05:48;;;;;;;3.72;2.97;;;21.60;73.90;;;;;;4937970;28;20523;-62
2023/08/10 09:08:15;;;;;;;3.40;2.72;;;21.70;73.70;;;;;;4939730;28;20048;-62
2023/08/10 09:10:42;;;;;;;2.95;2.72;;;21.70;73.30;;;;;;4940576;28;20039;-62
2023/08/10 09:13:16;;;;;;;2.65;2.45;;;21.80;72.90;;;;;;4939060;29;20071;-62
2023/08/10 09:15:42;;;;;;;3.10;2.80;;;21.80;72.80;;;;;;4940298;28;20566;-62
2023/08/10 09:18:07;;;;;;;3.65;2.85;;;21.90;73.20;;;;;;4936423;28;20043;-62
2023/08/10 09:20:33;;;;;;;3.47;2.50;;;21.90;72.50;;;;;;4939259;28;20513;-63
2023/08/10 09:23:00;;;;;;;2.60;2.40;;;22.00;72.70;;;;;;4940703;28;20066;-62
2023/08/10 09:25:26;;;;;;;3.05;2.42;;;22.10;72.60;;;;;;4939979;28;20496;-62
2023/08/10 09:27:53;;;;;;;2.75;2.40;;;22.20;72.50;;;;;;4939527;28;20035;-61
2023/08/10 09:30:20;;;;;;;2.88;2.38;;;22.30;73.50;;;;;;4939034;28;20448;-62
2023/08/10 09:32:46;;;;;;;4.43;3.10;;;22.40;72.40;;;;;;4940151;28;20133;-61
2023/08/10 09:35:19;;;;;;;2.33;2.10;;;22.50;71.30;;;;;;4939581;28;20881;-62
2023/08/10 09:37:46;;;;;;;2.53;2.33;;;22.50;71.10;;;;;;4938644;28;20035;-62
2023/08/10 09:40:16;;;;;;;2.60;2.40;;;22.60;71.30;;;;;;4938012;28;20066;-62
2023/08/10 09:42:41;;;;;;;2.20;2.00;;;22.70;70.50;;;;;;4939970;28;20090;-63
2023/08/10 09:45:12;;;;;;;2.70;2.40;;;22.80;70.70;;;;;;4942186;28;20067;-63
2023/08/10 09:47:39;;;;;;;2.67;2.47;;;22.80;70.20;;;;;;4939116;28;20127;-62
2023/08/10 09:50:11;;;;;;;2.60;2.40;;;22.90;70.00;;;;;;4942187;28;20071;-62
2023/08/10 09:52:38;;;;;;;2.78;2.50;;;23.00;69.80;;;;;;4943578;28;20073;-62
2023/08/10 09:55:05;;;;;;;2.20;2.00;;;23.00;69.50;;;;;;4942460;28;20039;-63
2023/08/10 09:57:31;;;;;;;3.35;2.42;;;23.10;69.30;;;;;;4942543;28;20256;-63
2023/08/10 09:59:57;;;;;;;2.45;2.25;;;23.20;68.80;;;;;;4925414;28;20040;-63
2023/08/10 10:02:24;;;;;;;2.95;2.28;;;23.20;68.30;;;;;;4942367;28;20050;-63
2023/08/10 10:04:51;;;;;;;3.00;1.98;;;23.20;68.00;;;;;;4941108;28;20032;-62
2023/08/10 10:07:27;;;;;;;2.30;2.10;;;23.30;68.00;;;;;;4942252;28;20027;-62
2023/08/10 10:09:58;;;;;;;2.35;2.15;;;23.30;66.70;;;;;;4941975;28;20035;-62
2023/08/10 10:12:24;;;;;;;2.40;2.20;;;23.50;67.60;;;;;;4943462;28;20039;-62
2023/08/10 10:14:51;;;;;;;2.40;2.20;;;23.60;67.20;;;;;;4941869;28;20043;-62
2023/08/10 10:17:19;;;;;;;2.78;2.22;;;23.60;66.60;;;;;;4941892;29;20035;-61
2023/08/10 10:19:48;;;;;;;2.47;2.28;;;23.70;66.60;;;;;;4941652;28;20042;-61
2023/08/10 10:22:16;;;;;;;2.35;2.20;;;23.70;66.60;;;;;;4942153;28;20046;-63
2023/08/10 10:24:42;;;;;;;6.55;2.08;;;23.70;66.00;;;;;;4942092;28;20048;-62
2023/08/10 10:27:11;;;;;;;2.67;2.20;;;23.80;66.20;;;;;;4943178;28;20031;-62
2023/08/10 10:29:43;;;;;;;2.35;1.73;;;23.80;66.20;;;;;;4943638;28;20491;-63
2023/08/10 10:32:19;;;;;;;2.00;1.90;;;23.80;64.80;;;;;;4943351;28;20039;-62
2023/08/10 10:34:46;;;;;;;2.60;2.40;;;23.90;62.60;;;;;;4942038;28;20036;-62
2023/08/10 10:37:18;;;;;;;2.42;2.22;;;23.90;62.00;;;;;;4943406;29;20039;-63
2023/08/10 10:39:53;;;;;;;4.07;2.90;;;23.90;61.90;;;;;;4942858;28;20118;-62
2023/08/10 10:42:20;;;;;;;2.10;2.00;;;23.80;61.50;;;;;;4943436;29;20043;-62
2023/08/10 10:45:03;;;;;;;2.40;2.20;;;23.80;63.20;;;;;;4943238;28;20483;-63
2023/08/10 10:47:58;;;;;;;2.83;1.90;;;23.80;61.90;;;;;;4943833;28;20035;-63
2023/08/10 10:50:25;;;;;;;1.90;1.80;;;23.90;60.80;;;;;;4942766;28;20074;-63
2023/08/10 10:53:13;;;;;;;2.08;1.98;;;23.90;61.60;;;;;;4940595;28;20698;-63
2023/08/10 10:55:43;;;;;;;2.17;1.98;;;23.90;59.80;;;;;;4939751;28;20035;-63
2023/08/10 10:58:11;;;;;;;2.03;1.48;;;23.90;61.60;;;;;;4941386;28;20035;-63
2023/08/10 11:00:37;;;;;;;2.22;1.80;;;23.90;61.90;;;;;;4939977;28;20031;-63
2023/08/10 11:03:04;;;;;;;1.83;1.60;;;24.00;61.50;;;;;;4942133;28;20047;-63
2023/08/10 11:05:30;;;;;;;1.45;1.35;;;24.00;60.10;;;;;;4942366;28;20039;-63
2023/08/10 11:07:55;;;;;;;1.80;1.70;;;24.00;59.90;;;;;;4939810;28;20066;-63
2023/08/10 11:10:24;;;;;;;3.10;2.00;;;23.90;60.00;;;;;;4942763;28;20503;-63
2023/08/10 11:12:51;;;;;;;2.30;1.90;;;23.90;59.30;;;;;;4940164;28;20040;-62
2023/08/10 11:15:17;;;;;;;1.70;1.60;;;23.90;60.10;;;;;;4941093;28;20488;-63
2023/08/10 11:17:53;;;;;;;1.60;1.50;;;23.90;61.00;;;;;;4940945;28;20983;-63
2023/08/10 11:20:21;;;;;;;2.72;1.70;;;23.90;60.30;;;;;;4941546;28;20059;-62
2023/08/10 11:22:47;;;;;;;2.00;1.80;;;24.00;60.10;;;;;;4921586;28;20054;-63
2023/08/10 11:25:15;;;;;;;1.80;1.70;;;24.00;59.00;;;;;;4941065;28;20039;-62
2023/08/10 11:27:42;;;;;;;1.95;1.58;;;24.10;59.40;;;;;;4941483;28;20039;-62
2023/08/10 11:30:09;;;;;;;1.60;1.50;;;24.10;59.30;;;;;;4938653;28;20087;-63
2023/08/10 11:32:42;;;;;;;1.65;1.55;;;24.10;59.40;;;;;;4941274;28;20040;-63
2023/08/10 11:35:09;;;;;;;1.95;1.60;;;24.10;58.90;;;;;;4942029;28;20073;-63
2023/08/10 11:37:37;;;;;;;1.83;1.58;;;24.10;58.60;;;;;;4940698;28;20035;-61
2023/08/10 11:40:15;;;;;;;1.80;1.65;;;24.10;58.70;;;;;;4939618;28;20040;-63
2023/08/10 11:43:04;;;;;;;1.70;1.60;;;24.10;57.90;;;;;;4938683;28;20035;-63
2023/08/10 11:45:30;;;;;;;1.75;1.65;;;24.10;58.50;;;;;;4937930;28;20035;-63
2023/08/10 11:47:57;;;;;;;1.85;1.48;;;24.10;59.20;;;;;;4939546;28;20046;-63
2023/08/10 11:50:30;;;;;;;1.88;1.70;;;24.20;59.30;;;;;;4940361;29;20081;-63
2023/08/10 11:52:58;;;;;;;2.83;1.70;;;24.20;59.80;;;;;;4939599;28;20032;-63
2023/08/10 11:55:27;;;;;;;1.77;1.67;;;24.30;59.40;;;;;;4939696;28;20032;-63
2023/08/10 11:57:55;;;;;;;2.85;1.75;;;24.30;59.30;;;;;;4940275;28;20135;-62
2023/08/10 12:00:33;;;;;;;2.08;1.50;;;24.40;58.40;;;;;;4939982;28;20027;-63
2023/08/10 12:03:06;;;;;;;1.55;1.45;;;24.40;58.20;;;;;;4940190;28;20040;-63
2023/08/10 12:05:52;;;;;;;1.70;1.60;;;24.40;58.10;;;;;;4940230;28;20625;-63
2023/08/10 12:08:23;;;;;;;1.80;1.60;;;24.50;58.50;;;;;;4939925;28;20043;-63
2023/08/10 12:10:58;;;;;;;1.83;1.58;;;24.60;58.70;;;;;;4939727;28;20047;-63
2023/08/10 12:13:23;;;;;;;1.33;1.23;;;24.60;58.30;;;;;;4940332;28;20047;-62
2023/08/10 12:15:51;;;;;;;1.70;1.60;;;24.70;58.40;;;;;;4939804;28;20094;-63
2023/08/10 12:18:19;;;;;;;3.85;1.58;;;24.70;58.40;;;;;;4939447;28;20032;-62
2023/08/10 12:20:49;;;;;;;1.65;1.40;;;24.80;58.50;;;;;;4940225;28;20031;-62
2023/08/10 12:23:16;;;;;;;1.70;1.60;;;24.90;58.00;;;;;;4939775;28;20040;-62
2023/08/10 12:25:46;;;;;;;2.40;1.67;;;25.00;58.10;;;;;;4940321;28;20036;-61
2023/08/10 12:28:13;;;;;;;1.70;1.60;;;25.00;58.00;;;;;;4928009;28;20051;-63
2023/08/10 12:30:39;;;;;;;2.10;1.80;;;25.10;57.70;;;;;;4938199;28;20415;-63
2023/08/10 12:33:06;;;;;;;1.50;1.40;;;25.10;57.20;;;;;;4939684;29;20093;-63
2023/08/10 12:35:32;;;;;;;1.95;1.38;;;25.10;57.20;;;;;;4939671;28;20043;-63
2023/08/10 12:37:58;;;;;;;2.83;1.50;;;25.10;57.10;;;;;;4939086;28;20042;-63
2023/08/10 12:40:24;;;;;;;1.67;1.55;;;25.20;57.10;;;;;;4938196;28;20571;-62
2023/08/10 12:42:50;;;;;;;2.97;1.60;;;25.20;57.10;;;;;;4939640;28;20086;-62
2023/08/10 12:45:17;;;;;;;1.88;1.65;;;25.20;56.90;;;;;;4939041;28;20463;-63
2023/08/10 12:47:44;;;;;;;1.73;1.40;;;25.30;56.90;;;;;;4940250;28;20093;-63